sensor_id;sensor_type;location;lat;lon;timestamp;temperature;humidity
19214;DHT22;9741;51.020;5.304;2023-04-03T00:01:59;1.90;60.00
19214;DHT22;9741;51.020;5.304;2023-04-03T00:04:26;1.80;60.40
19214;DHT22;9741;51.020;5.304;2023-04-03T00:06:53;1.80;60.00
19214;DHT22;9741;51.020;5.304;2023-04-03T00:09:20;1.80;60.00
19214;DHT22;9741;51.020;5.304;2023-04-03T00:11:49;1.70;60.00
19214;DHT22;9741;51.020;5.304;2023-04-03T00:14:16;1.70;60.00
19214;DHT22;9741;51.020;5.304;2023-04-03T00:16:45;1.70;60.20
19214;DHT22;9741;51.020;5.304;2023-04-03T00:19:12;1.60;60.10
19214;DHT22;9741;51.020;5.304;2023-04-03T00:21:39;1.70;60.20
19214;DHT22;9741;51.020;5.304;2023-04-03T00:24:06;1.60;60.20
19214;DHT22;9741;51.020;5.304;2023-04-03T00:26:34;1.60;60.20
19214;DHT22;9741;51.020;5.304;2023-04-03T00:29:01;1.60;60.20
19214;DHT22;9741;51.020;5.304;2023-04-03T00:31:28;1.60;60.30
19214;DHT22;9741;51.020;5.304;2023-04-03T00:33:56;1.50;60.20
19214;DHT22;9741;51.020;5.304;2023-04-03T00:36:23;1.50;60.30
19214;DHT22;9741;51.020;5.304;2023-04-03T00:38:51;1.50;60.30
19214;DHT22;9741;51.020;5.304;2023-04-03T00:41:18;1.50;60.30
19214;DHT22;9741;51.020;5.304;2023-04-03T00:43:45;1.40;60.20
19214;DHT22;9741;51.020;5.304;2023-04-03T00:46:12;1.40;60.30
19214;DHT22;9741;51.020;5.304;2023-04-03T00:48:41;1.40;60.30
19214;DHT22;9741;51.020;5.304;2023-04-03T00:51:13;1.40;60.30
19214;DHT22;9741;51.020;5.304;2023-04-03T00:53:44;1.30;60.30
19214;DHT22;9741;51.020;5.304;2023-04-03T00:56:13;1.30;60.30
19214;DHT22;9741;51.020;5.304;2023-04-03T00:58:45;1.30;60.30
19214;DHT22;9741;51.020;5.304;2023-04-03T01:01:16;1.30;60.30
19214;DHT22;9741;51.020;5.304;2023-04-03T01:03:45;1.20;60.30
19214;DHT22;9741;51.020;5.304;2023-04-03T01:06:16;1.20;60.40
19214;DHT22;9741;51.020;5.304;2023-04-03T01:08:44;1.10;60.30
19214;DHT22;9741;51.020;5.304;2023-04-03T01:11:12;1.10;60.40
19214;DHT22;9741;51.020;5.304;2023-04-03T01:13:39;1.10;60.40
19214;DHT22;9741;51.020;5.304;2023-04-03T01:16:07;1.10;60.50
19214;DHT22;9741;51.020;5.304;2023-04-03T01:18:37;1.00;60.40
19214;DHT22;9741;51.020;5.304;2023-04-03T01:24:19;1.00;60.60
19214;DHT22;9741;51.020;5.304;2023-04-03T01:26:49;1.00;60.60
19214;DHT22;9741;51.020;5.304;2023-04-03T01:29:17;0.90;60.50
19214;DHT22;9741;51.020;5.304;2023-04-03T01:31:50;0.90;60.50
19214;DHT22;9741;51.020;5.304;2023-04-03T01:34:21;0.90;60.50
19214;DHT22;9741;51.020;5.304;2023-04-03T01:36:49;0.90;60.50
19214;DHT22;9741;51.020;5.304;2023-04-03T01:39:16;0.80;60.50
19214;DHT22;9741;51.020;5.304;2023-04-03T01:41:44;0.80;60.60
19214;DHT22;9741;51.020;5.304;2023-04-03T01:44:11;0.80;60.60
19214;DHT22;9741;51.020;5.304;2023-04-03T01:46:38;0.80;60.70
19214;DHT22;9741;51.020;5.304;2023-04-03T01:49:08;0.80;60.70
19214;DHT22;9741;51.020;5.304;2023-04-03T01:51:35;0.80;60.70
19214;DHT22;9741;51.020;5.304;2023-04-03T01:54:03;0.80;60.70
19214;DHT22;9741;51.020;5.304;2023-04-03T01:56:30;0.80;60.80
19214;DHT22;9741;51.020;5.304;2023-04-03T01:58:57;0.80;60.80
19214;DHT22;9741;51.020;5.304;2023-04-03T02:01:24;0.80;60.80
19214;DHT22;9741;51.020;5.304;2023-04-03T02:03:52;0.80;60.90
19214;DHT22;9741;51.020;5.304;2023-04-03T02:06:21;0.80;60.80
19214;DHT22;9741;51.020;5.304;2023-04-03T02:08:48;0.70;60.80
19214;DHT22;9741;51.020;5.304;2023-04-03T02:11:16;0.70;60.80
19214;DHT22;9741;51.020;5.304;2023-04-03T02:13:43;0.70;60.80
19214;DHT22;9741;51.020;5.304;2023-04-03T02:16:10;0.70;60.90
19214;DHT22;9741;51.020;5.304;2023-04-03T02:18:38;0.70;60.90
19214;DHT22;9741;51.020;5.304;2023-04-03T02:21:06;0.70;60.90
19214;DHT22;9741;51.020;5.304;2023-04-03T02:23:34;0.70;60.90
19214;DHT22;9741;51.020;5.304;2023-04-03T02:26:07;0.60;60.80
19214;DHT22;9741;51.020;5.304;2023-04-03T02:28:34;0.60;61.40
19214;DHT22;9741;51.020;5.304;2023-04-03T02:31:02;0.60;60.90
19214;DHT22;9741;51.020;5.304;2023-04-03T02:33:29;0.60;60.90
19214;DHT22;9741;51.020;5.304;2023-04-03T02:35:57;0.50;60.90
19214;DHT22;9741;51.020;5.304;2023-04-03T02:38:25;0.60;61.00
19214;DHT22;9741;51.020;5.304;2023-04-03T02:40:57;0.50;60.90
19214;DHT22;9741;51.020;5.304;2023-04-03T02:43:26;0.50;61.00
19214;DHT22;9741;51.020;5.304;2023-04-03T02:45:53;0.50;61.00
19214;DHT22;9741;51.020;5.304;2023-04-03T02:48:20;0.50;61.00
19214;DHT22;9741;51.020;5.304;2023-04-03T02:50:47;0.50;61.00
19214;DHT22;9741;51.020;5.304;2023-04-03T02:53:15;0.50;61.00
19214;DHT22;9741;51.020;5.304;2023-04-03T02:55:42;0.50;61.00
19214;DHT22;9741;51.020;5.304;2023-04-03T02:58:11;0.50;61.10
19214;DHT22;9741;51.020;5.304;2023-04-03T03:00:38;0.40;61.00
19214;DHT22;9741;51.020;5.304;2023-04-03T03:03:05;0.40;61.00
19214;DHT22;9741;51.020;5.304;2023-04-03T03:05:32;0.40;61.00
19214;DHT22;9741;51.020;5.304;2023-04-03T03:07:59;0.40;61.00
19214;DHT22;9741;51.020;5.304;2023-04-03T03:10:26;0.40;61.10
19214;DHT22;9741;51.020;5.304;2023-04-03T03:12:54;0.40;61.20
19214;DHT22;9741;51.020;5.304;2023-04-03T03:15:22;0.40;61.20
19214;DHT22;9741;51.020;5.304;2023-04-03T03:17:49;0.40;61.20
19214;DHT22;9741;51.020;5.304;2023-04-03T03:20:16;0.40;61.20
19214;DHT22;9741;51.020;5.304;2023-04-03T03:22:43;0.30;61.20
19214;DHT22;9741;51.020;5.304;2023-04-03T03:25:11;0.30;61.20
19214;DHT22;9741;51.020;5.304;2023-04-03T03:27:38;0.30;61.20
19214;DHT22;9741;51.020;5.304;2023-04-03T03:30:06;0.40;61.40
19214;DHT22;9741;51.020;5.304;2023-04-03T03:32:35;0.40;61.40
19214;DHT22;9741;51.020;5.304;2023-04-03T03:35:02;0.40;61.50
19214;DHT22;9741;51.020;5.304;2023-04-03T03:37:29;0.40;61.50
19214;DHT22;9741;51.020;5.304;2023-04-03T03:39:57;0.50;61.60
19214;DHT22;9741;51.020;5.304;2023-04-03T03:42:24;0.60;61.70
19214;DHT22;9741;51.020;5.304;2023-04-03T03:44:51;0.60;61.60
19214;DHT22;9741;51.020;5.304;2023-04-03T03:47:18;0.60;61.50
19214;DHT22;9741;51.020;5.304;2023-04-03T03:49:47;0.60;61.50
19214;DHT22;9741;51.020;5.304;2023-04-03T03:52:14;0.60;61.50
19214;DHT22;9741;51.020;5.304;2023-04-03T03:54:41;0.60;61.50
19214;DHT22;9741;51.020;5.304;2023-04-03T03:57:08;0.60;61.50
19214;DHT22;9741;51.020;5.304;2023-04-03T03:59:36;0.50;61.50
19214;DHT22;9741;51.020;5.304;2023-04-03T04:02:03;0.50;61.50
19214;DHT22;9741;51.020;5.304;2023-04-03T04:04:30;0.50;61.50
19214;DHT22;9741;51.020;5.304;2023-04-03T04:06:59;0.50;61.60
19214;DHT22;9741;51.020;5.304;2023-04-03T04:09:26;0.50;61.60
19214;DHT22;9741;51.020;5.304;2023-04-03T04:11:53;0.50;61.60
19214;DHT22;9741;51.020;5.304;2023-04-03T04:14:22;0.50;61.60
19214;DHT22;9741;51.020;5.304;2023-04-03T04:16:50;0.50;61.60
19214;DHT22;9741;51.020;5.304;2023-04-03T04:19:17;0.40;61.60
19214;DHT22;9741;51.020;5.304;2023-04-03T04:21:44;0.40;61.60
19214;DHT22;9741;51.020;5.304;2023-04-03T04:24:12;0.40;61.60
19214;DHT22;9741;51.020;5.304;2023-04-03T04:26:40;0.40;61.70
19214;DHT22;9741;51.020;5.304;2023-04-03T04:29:09;0.40;61.60
19214;DHT22;9741;51.020;5.304;2023-04-03T04:31:36;0.40;61.70
19214;DHT22;9741;51.020;5.304;2023-04-03T04:34:03;0.30;61.60
19214;DHT22;9741;51.020;5.304;2023-04-03T04:36:30;0.30;61.70
19214;DHT22;9741;51.020;5.304;2023-04-03T04:38:57;0.30;61.70
19214;DHT22;9741;51.020;5.304;2023-04-03T04:41:26;0.30;61.70
19214;DHT22;9741;51.020;5.304;2023-04-03T04:43:53;0.30;61.70
19214;DHT22;9741;51.020;5.304;2023-04-03T04:46:20;0.30;61.70
19214;DHT22;9741;51.020;5.304;2023-04-03T04:48:47;0.30;61.80
19214;DHT22;9741;51.020;5.304;2023-04-03T04:51:15;0.30;61.80
19214;DHT22;9741;51.020;5.304;2023-04-03T04:53:42;0.30;61.80
19214;DHT22;9741;51.020;5.304;2023-04-03T04:56:10;0.30;61.90
19214;DHT22;9741;51.020;5.304;2023-04-03T04:58:38;0.30;61.90
19214;DHT22;9741;51.020;5.304;2023-04-03T05:01:08;0.30;62.00
19214;DHT22;9741;51.020;5.304;2023-04-03T05:03:35;0.40;62.10
19214;DHT22;9741;51.020;5.304;2023-04-03T05:06:03;0.40;62.10
19214;DHT22;9741;51.020;5.304;2023-04-03T05:08:30;0.40;62.20
19214;DHT22;9741;51.020;5.304;2023-04-03T05:10:58;0.50;62.20
19214;DHT22;9741;51.020;5.304;2023-04-03T05:13:25;0.60;62.30
19214;DHT22;9741;51.020;5.304;2023-04-03T05:15:56;0.70;62.30
19214;DHT22;9741;51.020;5.304;2023-04-03T05:18:23;0.80;62.50
19214;DHT22;9741;51.020;5.304;2023-04-03T05:20:50;0.80;62.40
19214;DHT22;9741;51.020;5.304;2023-04-03T05:23:18;0.90;62.50
19214;DHT22;9741;51.020;5.304;2023-04-03T05:25:45;1.00;62.60
19214;DHT22;9741;51.020;5.304;2023-04-03T05:28:12;1.10;62.70
19214;DHT22;9741;51.020;5.304;2023-04-03T05:30:39;1.20;62.70
19214;DHT22;9741;51.020;5.304;2023-04-03T05:33:08;1.30;62.70
19214;DHT22;9741;51.020;5.304;2023-04-03T05:35:36;1.40;62.80
19214;DHT22;9741;51.020;5.304;2023-04-03T05:38:07;1.50;62.80
19214;DHT22;9741;51.020;5.304;2023-04-03T05:40:34;1.50;62.70
19214;DHT22;9741;51.020;5.304;2023-04-03T05:43:01;1.60;62.90
19214;DHT22;9741;51.020;5.304;2023-04-03T05:45:29;1.60;62.90
19214;DHT22;9741;51.020;5.304;2023-04-03T05:47:56;1.70;62.90
19214;DHT22;9741;51.020;5.304;2023-04-03T05:50:25;1.80;63.00
19214;DHT22;9741;51.020;5.304;2023-04-03T05:52:53;1.80;63.00
19214;DHT22;9741;51.020;5.304;2023-04-03T05:55:22;1.90;63.10
19214;DHT22;9741;51.020;5.304;2023-04-03T05:57:49;1.90;63.10
19214;DHT22;9741;51.020;5.304;2023-04-03T06:00:17;2.00;63.20
19214;DHT22;9741;51.020;5.304;2023-04-03T06:02:45;2.10;63.30
19214;DHT22;9741;51.020;5.304;2023-04-03T06:05:12;2.10;63.30
19214;DHT22;9741;51.020;5.304;2023-04-03T06:07:41;2.10;63.30
19214;DHT22;9741;51.020;5.304;2023-04-03T06:10:11;2.20;63.40
19214;DHT22;9741;51.020;5.304;2023-04-03T06:12:38;2.30;63.50
19214;DHT22;9741;51.020;5.304;2023-04-03T06:15:06;2.30;63.50
19214;DHT22;9741;51.020;5.304;2023-04-03T06:17:35;2.40;63.60
19214;DHT22;9741;51.020;5.304;2023-04-03T06:20:03;2.50;63.70
19214;DHT22;9741;51.020;5.304;2023-04-03T06:22:30;2.60;63.70
19214;DHT22;9741;51.020;5.304;2023-04-03T06:24:59;2.70;63.80
19214;DHT22;9741;51.020;5.304;2023-04-03T06:27:27;2.70;63.70
19214;DHT22;9741;51.020;5.304;2023-04-03T06:29:54;2.80;63.80
19214;DHT22;9741;51.020;5.304;2023-04-03T06:32:22;2.90;63.90
19214;DHT22;9741;51.020;5.304;2023-04-03T06:34:49;3.00;63.90
19214;DHT22;9741;51.020;5.304;2023-04-03T06:37:18;3.00;63.90
19214;DHT22;9741;51.020;5.304;2023-04-03T06:39:46;3.10;63.90
19214;DHT22;9741;51.020;5.304;2023-04-03T06:42:15;3.20;64.00
19214;DHT22;9741;51.020;5.304;2023-04-03T06:44:42;3.30;64.00
19214;DHT22;9741;51.020;5.304;2023-04-03T06:47:11;3.30;63.90
19214;DHT22;9741;51.020;5.304;2023-04-03T06:49:39;3.40;64.00
19214;DHT22;9741;51.020;5.304;2023-04-03T06:52:07;3.40;63.90
19214;DHT22;9741;51.020;5.304;2023-04-03T06:54:34;3.50;63.90
19214;DHT22;9741;51.020;5.304;2023-04-03T06:57:01;3.60;63.90
19214;DHT22;9741;51.020;5.304;2023-04-03T06:59:30;3.70;63.90
19214;DHT22;9741;51.020;5.304;2023-04-03T07:01:57;3.70;63.90
19214;DHT22;9741;51.020;5.304;2023-04-03T07:04:25;3.80;63.80
19214;DHT22;9741;51.020;5.304;2023-04-03T07:06:52;3.90;63.80
19214;DHT22;9741;51.020;5.304;2023-04-03T07:09:19;4.00;63.70
19214;DHT22;9741;51.020;5.304;2023-04-03T07:11:47;4.00;63.60
19214;DHT22;9741;51.020;5.304;2023-04-03T07:14:15;4.10;63.50
19214;DHT22;9741;51.020;5.304;2023-04-03T07:16:43;4.20;63.50
19214;DHT22;9741;51.020;5.304;2023-04-03T07:19:10;4.30;63.50
19214;DHT22;9741;51.020;5.304;2023-04-03T07:21:38;4.40;63.40
19214;DHT22;9741;51.020;5.304;2023-04-03T07:24:06;4.50;63.50
19214;DHT22;9741;51.020;5.304;2023-04-03T07:26:33;4.60;63.40
19214;DHT22;9741;51.020;5.304;2023-04-03T07:29:00;4.70;63.20
19214;DHT22;9741;51.020;5.304;2023-04-03T07:31:28;4.80;63.10
19214;DHT22;9741;51.020;5.304;2023-04-03T07:33:56;4.90;62.90
19214;DHT22;9741;51.020;5.304;2023-04-03T07:36:23;5.00;62.90
19214;DHT22;9741;51.020;5.304;2023-04-03T07:38:54;5.10;62.70
19214;DHT22;9741;51.020;5.304;2023-04-03T07:41:22;5.20;62.70
19214;DHT22;9741;51.020;5.304;2023-04-03T07:43:49;5.30;62.60
19214;DHT22;9741;51.020;5.304;2023-04-03T07:46:19;5.40;62.50
19214;DHT22;9741;51.020;5.304;2023-04-03T07:48:46;5.70;62.60
19214;DHT22;9741;51.020;5.304;2023-04-03T07:51:15;6.00;62.80
19214;DHT22;9741;51.020;5.304;2023-04-03T07:53:42;6.50;63.10
19214;DHT22;9741;51.020;5.304;2023-04-03T07:56:09;7.50;63.40
19214;DHT22;9741;51.020;5.304;2023-04-03T07:58:36;8.60;63.00
19214;DHT22;9741;51.020;5.304;2023-04-03T08:01:04;9.70;62.10
19214;DHT22;9741;51.020;5.304;2023-04-03T08:03:32;10.60;60.20
19214;DHT22;9741;51.020;5.304;2023-04-03T08:06:03;11.70;59.70
19214;DHT22;9741;51.020;5.304;2023-04-03T08:08:33;12.60;58.60
19214;DHT22;9741;51.020;5.304;2023-04-03T08:11:01;13.40;57.20
19214;DHT22;9741;51.020;5.304;2023-04-03T08:13:31;14.00;56.30
19214;DHT22;9741;51.020;5.304;2023-04-03T08:16:06;14.50;55.20
19214;DHT22;9741;51.020;5.304;2023-04-03T08:18:33;14.90;54.20
19214;DHT22;9741;51.020;5.304;2023-04-03T08:21:00;15.20;53.80
19214;DHT22;9741;51.020;5.304;2023-04-03T08:23:27;15.60;52.80
19214;DHT22;9741;51.020;5.304;2023-04-03T08:25:55;15.80;52.00
19214;DHT22;9741;51.020;5.304;2023-04-03T08:28:23;16.20;51.60
19214;DHT22;9741;51.020;5.304;2023-04-03T08:30:50;16.70;50.80
19214;DHT22;9741;51.020;5.304;2023-04-03T08:33:17;17.00;49.90
19214;DHT22;9741;51.020;5.304;2023-04-03T08:35:44;17.40;49.10
19214;DHT22;9741;51.020;5.304;2023-04-03T08:38:11;17.50;47.90
19214;DHT22;9741;51.020;5.304;2023-04-03T08:40:39;17.60;47.40
19214;DHT22;9741;51.020;5.304;2023-04-03T08:43:24;17.80;46.80
19214;DHT22;9741;51.020;5.304;2023-04-03T08:46:00;17.80;46.20
19214;DHT22;9741;51.020;5.304;2023-04-03T08:48:31;18.00;45.50
19214;DHT22;9741;51.020;5.304;2023-04-03T08:51:04;18.10;45.00
19214;DHT22;9741;51.020;5.304;2023-04-03T08:53:35;18.00;44.20
19214;DHT22;9741;51.020;5.304;2023-04-03T08:56:09;18.00;43.70
19214;DHT22;9741;51.020;5.304;2023-04-03T08:58:42;18.00;43.30
19214;DHT22;9741;51.020;5.304;2023-04-03T09:01:19;18.10;43.10
19214;DHT22;9741;51.020;5.304;2023-04-03T09:03:48;18.40;43.00
19214;DHT22;9741;51.020;5.304;2023-04-03T09:06:17;18.60;42.50
19214;DHT22;9741;51.020;5.304;2023-04-03T09:08:50;18.70;41.40
19214;DHT22;9741;51.020;5.304;2023-04-03T09:11:22;18.60;40.80
19214;DHT22;9741;51.020;5.304;2023-04-03T09:13:59;18.60;40.80
19214;DHT22;9741;51.020;5.304;2023-04-03T09:16:36;18.80;40.50
19214;DHT22;9741;51.020;5.304;2023-04-03T09:19:13;18.60;39.60
19214;DHT22;9741;51.020;5.304;2023-04-03T09:21:42;18.40;39.50
19214;DHT22;9741;51.020;5.304;2023-04-03T09:24:12;18.20;39.20
19214;DHT22;9741;51.020;5.304;2023-04-03T09:26:43;18.00;39.10
19214;DHT22;9741;51.020;5.304;2023-04-03T09:29:17;17.90;38.80
19214;DHT22;9741;51.020;5.304;2023-04-03T09:31:48;17.60;38.20
19214;DHT22;9741;51.020;5.304;2023-04-03T09:34:20;17.30;38.10
19214;DHT22;9741;51.020;5.304;2023-04-03T09:36:49;17.20;38.00
19214;DHT22;9741;51.020;5.304;2023-04-03T09:39:18;17.00;37.30
19214;DHT22;9741;51.020;5.304;2023-04-03T09:41:58;16.80;37.30
19214;DHT22;9741;51.020;5.304;2023-04-03T09:44:28;16.90;37.50
19214;DHT22;9741;51.020;5.304;2023-04-03T09:46:56;17.10;37.40
19214;DHT22;9741;51.020;5.304;2023-04-03T09:49:23;17.30;37.20
19214;DHT22;9741;51.020;5.304;2023-04-03T09:51:50;17.60;36.90
19214;DHT22;9741;51.020;5.304;2023-04-03T09:54:33;17.80;36.40
19214;DHT22;9741;51.020;5.304;2023-04-03T09:57:06;17.80;35.80
19214;DHT22;9741;51.020;5.304;2023-04-03T09:59:34;17.80;35.20
19214;DHT22;9741;51.020;5.304;2023-04-03T10:02:04;17.70;35.00
19214;DHT22;9741;51.020;5.304;2023-04-03T10:04:45;17.50;34.30
19214;DHT22;9741;51.020;5.304;2023-04-03T10:07:35;17.10;34.20
19214;DHT22;9741;51.020;5.304;2023-04-03T10:10:17;16.80;34.20
19214;DHT22;9741;51.020;5.304;2023-04-03T10:12:45;16.50;33.60
19214;DHT22;9741;51.020;5.304;2023-04-03T10:15:15;16.10;33.60
19214;DHT22;9741;51.020;5.304;2023-04-03T10:17:51;16.00;33.40
19214;DHT22;9741;51.020;5.304;2023-04-03T10:20:30;15.70;33.30
19214;DHT22;9741;51.020;5.304;2023-04-03T10:23:09;15.60;33.10
19214;DHT22;9741;51.020;5.304;2023-04-03T10:25:45;15.40;33.20
19214;DHT22;9741;51.020;5.304;2023-04-03T10:28:18;15.30;32.90
19214;DHT22;9741;51.020;5.304;2023-04-03T10:30:54;15.20;32.50
19214;DHT22;9741;51.020;5.304;2023-04-03T10:33:37;14.90;31.80
19214;DHT22;9741;51.020;5.304;2023-04-03T10:36:19;14.70;31.80
19214;DHT22;9741;51.020;5.304;2023-04-03T10:38:57;14.50;31.20
19214;DHT22;9741;51.020;5.304;2023-04-03T10:41:34;14.20;31.30
19214;DHT22;9741;51.020;5.304;2023-04-03T10:44:14;13.80;31.10
19214;DHT22;9741;51.020;5.304;2023-04-03T10:46:46;13.50;30.90
19214;DHT22;9741;51.020;5.304;2023-04-03T10:49:24;13.10;30.90
19214;DHT22;9741;51.020;5.304;2023-04-03T10:51:59;12.70;31.00
19214;DHT22;9741;51.020;5.304;2023-04-03T10:54:37;12.30;31.10
19214;DHT22;9741;51.020;5.304;2023-04-03T10:57:06;12.10;31.20
19214;DHT22;9741;51.020;5.304;2023-04-03T10:59:38;11.80;31.00
19214;DHT22;9741;51.020;5.304;2023-04-03T11:02:17;11.50;30.90
19214;DHT22;9741;51.020;5.304;2023-04-03T11:04:51;11.40;31.10
19214;DHT22;9741;51.020;5.304;2023-04-03T11:07:22;11.20;31.10
19214;DHT22;9741;51.020;5.304;2023-04-03T11:09:53;11.20;31.00
19214;DHT22;9741;51.020;5.304;2023-04-03T11:12:27;11.10;30.70
19214;DHT22;9741;51.020;5.304;2023-04-03T11:14:56;11.00;30.50
19214;DHT22;9741;51.020;5.304;2023-04-03T11:17:35;10.90;30.40
19214;DHT22;9741;51.020;5.304;2023-04-03T11:20:10;10.90;30.50
19214;DHT22;9741;51.020;5.304;2023-04-03T11:22:43;10.90;30.90
19214;DHT22;9741;51.020;5.304;2023-04-03T11:25:18;10.90;31.20
19214;DHT22;9741;51.020;5.304;2023-04-03T11:27:50;10.90;31.40
19214;DHT22;9741;51.020;5.304;2023-04-03T11:30:20;10.80;31.50
19214;DHT22;9741;51.020;5.304;2023-04-03T11:33:03;10.80;31.70
19214;DHT22;9741;51.020;5.304;2023-04-03T11:35:32;10.80;31.70
19214;DHT22;9741;51.020;5.304;2023-04-03T11:38:02;10.80;31.80
19214;DHT22;9741;51.020;5.304;2023-04-03T11:40:33;10.90;31.90
19214;DHT22;9741;51.020;5.304;2023-04-03T11:43:06;10.90;31.90
19214;DHT22;9741;51.020;5.304;2023-04-03T11:45:46;10.90;31.60
19214;DHT22;9741;51.020;5.304;2023-04-03T11:51:44;10.90;31.60
19214;DHT22;9741;51.020;5.304;2023-04-03T11:54:43;10.90;31.60
19214;DHT22;9741;51.020;5.304;2023-04-03T12:09:30;10.80;31.30
19214;DHT22;9741;51.020;5.304;2023-04-03T12:12:00;10.90;30.90
19214;DHT22;9741;51.020;5.304;2023-04-03T12:14:29;10.90;31.00
19214;DHT22;9741;51.020;5.304;2023-04-03T12:16:57;11.00;30.90
19214;DHT22;9741;51.020;5.304;2023-04-03T12:19:36;11.00;30.90
19214;DHT22;9741;51.020;5.304;2023-04-03T12:22:14;11.10;31.10
19214;DHT22;9741;51.020;5.304;2023-04-03T12:24:45;11.00;30.70
19214;DHT22;9741;51.020;5.304;2023-04-03T12:27:34;11.00;30.60
19214;DHT22;9741;51.020;5.304;2023-04-03T12:30:15;11.00;30.60
19214;DHT22;9741;51.020;5.304;2023-04-03T12:33:04;11.00;30.50
19214;DHT22;9741;51.020;5.304;2023-04-03T12:35:37;10.90;30.20
19214;DHT22;9741;51.020;5.304;2023-04-03T12:38:22;10.90;30.10
19214;DHT22;9741;51.020;5.304;2023-04-03T12:40:58;10.90;30.00
19214;DHT22;9741;51.020;5.304;2023-04-03T12:43:44;10.90;30.20
19214;DHT22;9741;51.020;5.304;2023-04-03T12:46:17;10.90;30.10
19214;DHT22;9741;51.020;5.304;2023-04-03T12:48:49;10.90;30.40
19214;DHT22;9741;51.020;5.304;2023-04-03T12:51:19;11.00;30.40
19214;DHT22;9741;51.020;5.304;2023-04-03T12:53:49;11.00;30.60
19214;DHT22;9741;51.020;5.304;2023-04-03T12:56:22;11.00;30.80
19214;DHT22;9741;51.020;5.304;2023-04-03T12:58:50;11.00;31.00
19214;DHT22;9741;51.020;5.304;2023-04-03T13:01:21;11.10;31.10
19214;DHT22;9741;51.020;5.304;2023-04-03T13:03:52;11.10;31.00
19214;DHT22;9741;51.020;5.304;2023-04-03T13:06:22;11.10;30.80
19214;DHT22;9741;51.020;5.304;2023-04-03T13:08:54;11.10;30.80
19214;DHT22;9741;51.020;5.304;2023-04-03T13:11:25;11.10;31.10
19214;DHT22;9741;51.020;5.304;2023-04-03T13:13:59;11.10;31.10
19214;DHT22;9741;51.020;5.304;2023-04-03T13:16:29;11.10;31.30
19214;DHT22;9741;51.020;5.304;2023-04-03T13:18:56;11.10;31.40
19214;DHT22;9741;51.020;5.304;2023-04-03T13:21:27;11.20;31.30
19214;DHT22;9741;51.020;5.304;2023-04-03T13:23:57;11.20;31.30
19214;DHT22;9741;51.020;5.304;2023-04-03T13:26:28;11.30;31.70
19214;DHT22;9741;51.020;5.304;2023-04-03T13:28:58;11.30;31.50
19214;DHT22;9741;51.020;5.304;2023-04-03T13:31:30;11.30;31.60
19214;DHT22;9741;51.020;5.304;2023-04-03T13:34:02;11.30;31.70
19214;DHT22;9741;51.020;5.304;2023-04-03T13:36:31;11.30;31.70
19214;DHT22;9741;51.020;5.304;2023-04-03T13:39:05;11.30;31.80
19214;DHT22;9741;51.020;5.304;2023-04-03T13:41:35;11.30;31.90
19214;DHT22;9741;51.020;5.304;2023-04-03T13:44:26;11.30;31.80
19214;DHT22;9741;51.020;5.304;2023-04-03T13:46:56;11.20;31.80
19214;DHT22;9741;51.020;5.304;2023-04-03T13:49:29;11.20;31.90
19214;DHT22;9741;51.020;5.304;2023-04-03T13:51:57;11.20;32.00
19214;DHT22;9741;51.020;5.304;2023-04-03T13:54:31;11.20;32.00
19214;DHT22;9741;51.020;5.304;2023-04-03T13:57:01;11.20;32.00
19214;DHT22;9741;51.020;5.304;2023-04-03T13:59:30;11.30;32.10
19214;DHT22;9741;51.020;5.304;2023-04-03T14:02:14;11.20;31.80
19214;DHT22;9741;51.020;5.304;2023-04-03T14:04:49;11.20;31.90
19214;DHT22;9741;51.020;5.304;2023-04-03T14:07:17;11.30;32.20
19214;DHT22;9741;51.020;5.304;2023-04-03T14:09:45;11.30;32.20
19214;DHT22;9741;51.020;5.304;2023-04-03T14:12:16;11.30;32.30
19214;DHT22;9741;51.020;5.304;2023-04-03T14:14:45;11.40;32.50
19214;DHT22;9741;51.020;5.304;2023-04-03T14:17:16;11.40;32.50
19214;DHT22;9741;51.020;5.304;2023-04-03T14:19:44;11.40;32.40
19214;DHT22;9741;51.020;5.304;2023-04-03T14:22:14;11.40;32.50
19214;DHT22;9741;51.020;5.304;2023-04-03T14:24:42;11.50;32.80
19214;DHT22;9741;51.020;5.304;2023-04-03T14:27:17;11.50;32.80
19214;DHT22;9741;51.020;5.304;2023-04-03T14:29:45;11.50;32.60
19214;DHT22;9741;51.020;5.304;2023-04-03T14:32:15;11.50;32.60
19214;DHT22;9741;51.020;5.304;2023-04-03T14:34:44;11.40;32.30
19214;DHT22;9741;51.020;5.304;2023-04-03T14:37:13;11.40;32.20
19214;DHT22;9741;51.020;5.304;2023-04-03T14:39:41;11.40;32.30
19214;DHT22;9741;51.020;5.304;2023-04-03T14:42:12;11.40;32.40
19214;DHT22;9741;51.020;5.304;2023-04-03T14:44:41;11.40;32.40
19214;DHT22;9741;51.020;5.304;2023-04-03T14:47:11;11.40;32.40
19214;DHT22;9741;51.020;5.304;2023-04-03T14:49:38;11.50;32.60
19214;DHT22;9741;51.020;5.304;2023-04-03T14:52:09;11.50;32.70
19214;DHT22;9741;51.020;5.304;2023-04-03T14:54:43;11.50;32.50
19214;DHT22;9741;51.020;5.304;2023-04-03T14:57:13;11.50;32.30
19214;DHT22;9741;51.020;5.304;2023-04-03T14:59:42;11.50;32.40
19214;DHT22;9741;51.020;5.304;2023-04-03T15:02:26;11.50;32.60
19214;DHT22;9741;51.020;5.304;2023-04-03T15:04:54;11.50;32.40
19214;DHT22;9741;51.020;5.304;2023-04-03T15:07:22;11.50;32.30
19214;DHT22;9741;51.020;5.304;2023-04-03T15:09:49;11.50;32.20
19214;DHT22;9741;51.020;5.304;2023-04-03T15:12:17;11.40;32.10
19214;DHT22;9741;51.020;5.304;2023-04-03T15:14:46;11.40;32.20
19214;DHT22;9741;51.020;5.304;2023-04-03T15:17:15;11.40;32.20
19214;DHT22;9741;51.020;5.304;2023-04-03T15:19:43;11.40;32.10
19214;DHT22;9741;51.020;5.304;2023-04-03T15:22:13;11.40;32.10
19214;DHT22;9741;51.020;5.304;2023-04-03T15:24:41;11.40;32.10
19214;DHT22;9741;51.020;5.304;2023-04-03T15:27:09;11.40;32.10
19214;DHT22;9741;51.020;5.304;2023-04-03T15:29:36;11.40;32.10
19214;DHT22;9741;51.020;5.304;2023-04-03T15:32:05;11.40;32.10
19214;DHT22;9741;51.020;5.304;2023-04-03T15:34:32;11.40;32.10
19214;DHT22;9741;51.020;5.304;2023-04-03T15:36:59;11.40;32.20
19214;DHT22;9741;51.020;5.304;2023-04-03T15:39:26;11.40;32.70
19214;DHT22;9741;51.020;5.304;2023-04-03T15:41:54;11.30;32.10
19214;DHT22;9741;51.020;5.304;2023-04-03T15:44:25;11.40;32.30
19214;DHT22;9741;51.020;5.304;2023-04-03T15:46:52;11.30;32.10
19214;DHT22;9741;51.020;5.304;2023-04-03T15:49:21;11.30;32.10
19214;DHT22;9741;51.020;5.304;2023-04-03T15:51:48;11.20;32.00
19214;DHT22;9741;51.020;5.304;2023-04-03T15:54:16;11.20;32.00
19214;DHT22;9741;51.020;5.304;2023-04-03T15:56:43;11.20;32.10
19214;DHT22;9741;51.020;5.304;2023-04-03T15:59:11;11.10;32.00
19214;DHT22;9741;51.020;5.304;2023-04-03T16:01:38;11.10;32.10
19214;DHT22;9741;51.020;5.304;2023-04-03T16:04:08;11.10;32.20
19214;DHT22;9741;51.020;5.304;2023-04-03T16:06:39;11.20;32.20
19214;DHT22;9741;51.020;5.304;2023-04-03T16:09:06;11.20;32.20
19214;DHT22;9741;51.020;5.304;2023-04-03T16:11:36;11.10;32.10
19214;DHT22;9741;51.020;5.304;2023-04-03T16:14:05;11.10;32.00
19214;DHT22;9741;51.020;5.304;2023-04-03T16:16:35;11.00;31.90
19214;DHT22;9741;51.020;5.304;2023-04-03T16:19:05;11.00;31.90
19214;DHT22;9741;51.020;5.304;2023-04-03T16:21:33;11.00;32.00
19214;DHT22;9741;51.020;5.304;2023-04-03T16:24:05;11.00;32.00
19214;DHT22;9741;51.020;5.304;2023-04-03T16:26:32;11.00;31.90
19214;DHT22;9741;51.020;5.304;2023-04-03T16:28:59;10.90;31.90
19214;DHT22;9741;51.020;5.304;2023-04-03T16:31:26;10.90;32.00